createdAt,value
2022-10-26T00:02:31.050Z,100719.81
2022-10-26T00:06:03.613Z,100722.27
2022-10-26T00:09:30.414Z,100723.55
2022-10-26T00:12:57.877Z,100722.64
2022-10-26T00:16:27.738Z,100727.88
2022-10-26T00:19:55.297Z,100728.58
2022-10-26T00:23:22.556Z,100730.00
2022-10-26T00:26:51.013Z,100732.84
2022-10-26T00:30:19.031Z,100731.19
2022-10-26T00:33:46.648Z,100732.70
2022-10-26T00:37:13.579Z,100734.52
2022-10-26T00:40:40.769Z,100735.79
2022-10-26T00:44:38.827Z,100738.17
2022-10-26T00:48:09.284Z,100741.23
2022-10-26T00:51:41.255Z,100735.47
2022-10-26T00:55:10.249Z,100739.81
2022-10-26T00:58:38.130Z,100740.69
2022-10-26T01:02:05.404Z,100745.23
2022-10-26T01:05:33.411Z,100751.65
2022-10-26T01:09:02.406Z,100754.52
2022-10-26T01:12:32.343Z,100757.50
2022-10-26T01:16:08.770Z,100754.66
2022-10-26T01:20:23.561Z,100744.17
2022-10-26T01:24:09.362Z,100738.85
2022-10-26T01:27:38.143Z,100739.48
2022-10-26T01:31:08.737Z,100739.65
2022-10-26T01:34:44.409Z,100741.14
2022-10-26T01:38:18.609Z,100740.77
2022-10-26T01:41:50.637Z,100739.64
2022-10-26T01:45:18.699Z,100739.72
2022-10-26T01:48:47.868Z,100747.69
2022-10-26T01:52:17.230Z,100744.32
2022-10-26T01:55:49.341Z,100743.36
2022-10-26T01:59:32.595Z,100746.11
2022-10-26T02:03:08.963Z,100747.34
2022-10-26T02:06:44.987Z,100753.16
2022-10-26T02:10:22.094Z,100752.57
2022-10-26T02:13:54.825Z,100751.67
2022-10-26T02:17:29.634Z,100752.87
2022-10-26T02:21:01.099Z,100751.50
2022-10-26T02:24:30.138Z,100747.73
2022-10-26T02:28:01.748Z,100749.56
2022-10-26T02:31:30.036Z,100752.25
2022-10-26T02:35:01.401Z,100756.45
2022-10-26T02:38:31.455Z,100756.79
2022-10-26T02:41:59.903Z,100757.45
2022-10-26T02:45:32.281Z,100761.42
2022-10-26T02:49:00.581Z,100766.16
2022-10-26T02:52:36.067Z,100767.84
2022-10-26T02:56:18.588Z,100765.86
2022-10-26T02:59:50.992Z,100775.64
2022-10-26T03:03:20.273Z,100778.66
2022-10-26T03:06:55.981Z,100779.09
2022-10-26T03:10:23.538Z,100778.15
2022-10-26T03:13:51.089Z,100777.17
2022-10-26T03:17:18.419Z,100777.63
2022-10-26T03:20:47.245Z,100781.77
2022-10-26T03:24:14.206Z,100775.82
2022-10-26T03:27:48.746Z,100775.69
2022-10-26T03:31:16.575Z,100778.23
2022-10-26T03:34:43.613Z,100782.83
2022-10-26T03:38:15.257Z,100786.38
2022-10-26T03:41:46.049Z,100788.67
2022-10-26T03:45:14.362Z,100784.41
2022-10-26T03:48:41.610Z,100786.86
2022-10-26T03:52:08.377Z,100788.17
2022-10-26T03:55:35.189Z,100792.22
2022-10-26T03:59:02.217Z,100798.58
2022-10-26T04:02:28.952Z,100797.98
2022-10-26T04:06:10.093Z,100801.55
2022-10-26T04:09:39.100Z,100807.83
2022-10-26T04:13:05.585Z,100812.10
2022-10-26T04:16:33.556Z,100805.05
2022-10-26T04:20:00.158Z,100800.15
2022-10-26T04:23:26.893Z,100799.73
2022-10-26T04:26:54.208Z,100797.10
2022-10-26T04:30:21.206Z,100800.91
2022-10-26T04:33:50.433Z,100805.95
2022-10-26T04:37:17.575Z,100811.50
2022-10-26T04:40:44.499Z,100816.42
2022-10-26T04:44:11.329Z,100817.96
2022-10-26T04:47:38.318Z,100814.47
2022-10-26T04:51:05.544Z,100813.88
2022-10-26T04:54:38.692Z,100813.30
2022-10-26T04:58:05.608Z,100813.88
2022-10-26T05:01:32.235Z,100813.08
2022-10-26T05:04:59.717Z,100815.09
2022-10-26T05:08:27.121Z,100811.67
2022-10-26T05:11:53.766Z,100812.02
2022-10-26T05:15:21.083Z,100811.33
2022-10-26T05:18:58.919Z,100812.13
2022-10-26T05:22:26.147Z,100813.20
2022-10-26T05:25:53.198Z,100816.41
2022-10-26T05:29:19.807Z,100826.38
2022-10-26T05:32:47.180Z,100823.89
2022-10-26T05:36:14.606Z,100824.87
2022-10-26T05:39:43.676Z,100828.25
2022-10-26T05:43:10.888Z,100827.05
2022-10-26T05:46:37.571Z,100832.58
2022-10-26T05:50:05.255Z,100834.00
2022-10-26T05:53:32.291Z,100836.47
2022-10-26T05:57:00.386Z,100842.63
2022-10-26T06:00:30.412Z,100846.75
2022-10-26T06:04:17.069Z,100850.38
2022-10-26T06:07:44.526Z,100854.69
2022-10-26T06:11:12.589Z,100861.91
2022-10-26T06:14:40.444Z,100864.05
2022-10-26T06:18:18.081Z,100871.02
2022-10-26T06:22:06.039Z,100870.96
2022-10-26T06:25:45.802Z,100874.63
2022-10-26T06:29:24.265Z,100873.18
2022-10-26T06:33:01.301Z,100873.30
2022-10-26T06:36:34.737Z,100869.27
2022-10-26T06:40:02.320Z,100871.35
2022-10-26T06:43:32.593Z,100874.33
2022-10-26T06:47:06.513Z,100881.44
2022-10-26T06:50:39.501Z,100884.40
2022-10-26T06:54:14.969Z,100888.52
2022-10-26T06:57:43.757Z,100898.43
2022-10-26T07:01:14.126Z,100892.73
2022-10-26T07:04:41.255Z,100894.63
2022-10-26T07:08:08.858Z,100895.79
2022-10-26T07:11:35.401Z,100889.86
2022-10-26T07:15:02.389Z,100899.27
2022-10-26T07:18:30.174Z,100903.08
2022-10-26T07:21:59.540Z,100907.80
2022-10-26T07:25:28.851Z,100909.29
2022-10-26T07:28:55.892Z,100919.04
2022-10-26T07:32:22.948Z,100917.90
2022-10-26T07:35:49.709Z,100918.39
2022-10-26T07:39:16.952Z,100916.80
2022-10-26T07:42:46.871Z,100923.88
2022-10-26T07:46:14.961Z,100935.27
2022-10-26T07:49:41.774Z,100938.77
2022-10-26T07:53:08.993Z,100942.63
2022-10-26T07:56:36.658Z,100947.45
2022-10-26T08:00:03.261Z,100951.93
2022-10-26T08:03:31.872Z,100952.22
2022-10-26T08:06:58.421Z,100952.88
2022-10-26T08:10:25.544Z,100959.70
2022-10-26T08:13:55.196Z,100964.85
2022-10-26T08:17:23.364Z,100970.88
2022-10-26T08:20:50.235Z,100972.20
2022-10-26T08:24:17.173Z,100974.47
2022-10-26T08:27:43.691Z,100976.03
2022-10-26T08:31:10.845Z,100970.77
2022-10-26T08:34:37.725Z,100973.43
2022-10-26T08:38:04.558Z,100974.88
2022-10-26T08:41:38.401Z,100970.20
2022-10-26T08:45:12.561Z,100968.55
2022-10-26T08:48:42.200Z,100966.14
2022-10-26T08:52:14.244Z,100966.39
2022-10-26T08:55:48.704Z,100971.15
2022-10-26T08:59:20.771Z,100973.98
2022-10-26T09:02:50.841Z,100976.20
2022-10-26T09:06:27.813Z,100974.34
2022-10-26T09:10:03.455Z,100970.84
2022-10-26T09:13:45.659Z,100980.49
2022-10-26T09:17:25.480Z,100983.69
2022-10-26T09:21:14.376Z,100986.77
2022-10-26T09:24:44.878Z,100987.25
2022-10-26T09:28:18.892Z,100986.09
2022-10-26T09:31:49.847Z,100993.80
2022-10-26T09:35:22.106Z,100996.36
2022-10-26T09:38:52.926Z,100997.76
2022-10-26T09:42:24.029Z,101000.67
2022-10-26T09:45:54.090Z,101005.00
2022-10-26T09:49:23.476Z,101009.66
2022-10-26T09:52:50.935Z,101014.73
2022-10-26T09:56:19.495Z,101011.95
2022-10-26T09:59:50.138Z,101014.88
2022-10-26T10:03:26.871Z,101016.04
2022-10-26T10:07:12.697Z,101017.20
2022-10-26T10:10:41.115Z,101019.65
2022-10-26T10:14:11.472Z,101024.21
2022-10-26T10:17:38.204Z,101028.66
2022-10-26T10:21:07.875Z,101028.00
2022-10-26T10:24:37.124Z,101027.37
2022-10-26T10:28:04.305Z,101021.08
2022-10-26T10:31:35.309Z,101023.66
2022-10-26T10:35:02.624Z,101024.29
2022-10-26T10:38:30.068Z,101024.36
2022-10-26T10:41:58.699Z,101027.66
2022-10-26T10:45:29.035Z,101031.64
2022-10-26T10:49:07.280Z,101035.95
2022-10-26T10:52:38.706Z,101035.14
2022-10-26T10:56:26.556Z,101040.30
2022-10-26T11:00:02.314Z,101040.85
2022-10-26T11:03:46.258Z,101040.98
2022-10-26T11:07:14.852Z,101038.39
2022-10-26T11:10:45.917Z,101035.52
2022-10-26T11:14:17.399Z,101036.91
2022-10-26T11:17:57.567Z,101039.82
2022-10-26T11:21:30.397Z,101042.98
2022-10-26T11:25:03.442Z,101048.48
2022-10-26T11:28:40.754Z,101051.77
2022-10-26T11:32:15.357Z,101056.27
2022-10-26T11:35:48.042Z,101057.84
2022-10-26T11:39:23.717Z,101059.91
2022-10-26T11:42:57.822Z,101058.02
2022-10-26T11:46:29.923Z,101060.79
2022-10-26T11:50:04.917Z,101060.26
2022-10-26T11:53:37.547Z,101054.27
2022-10-26T11:57:05.604Z,101056.39
2022-10-26T12:00:34.481Z,101054.89
2022-10-26T12:04:07.438Z,101052.50
2022-10-26T12:07:37.292Z,101052.80
2022-10-26T12:11:11.939Z,101052.52
2022-10-26T12:14:45.221Z,101052.94
2022-10-26T12:18:26.895Z,101054.42
2022-10-26T12:21:59.181Z,101051.86
2022-10-26T12:25:25.877Z,101051.17
2022-10-26T12:29:12.440Z,101049.27
2022-10-26T12:32:54.350Z,101051.50
2022-10-26T12:36:52.410Z,101056.64
2022-10-26T12:40:44.710Z,101051.40
2022-10-26T12:44:45.842Z,101048.92
2022-10-26T12:48:34.965Z,101048.33
2022-10-26T12:52:05.395Z,101048.71
2022-10-26T12:55:56.569Z,101051.11
2022-10-26T12:59:31.854Z,101056.73
2022-10-26T13:03:18.668Z,101061.77
2022-10-26T13:07:02.155Z,101061.77
2022-10-26T13:10:31.055Z,101058.45
2022-10-26T13:14:04.533Z,101059.08
2022-10-26T13:17:37.707Z,101062.00
2022-10-26T13:21:13.561Z,101059.52
2022-10-26T13:24:55.081Z,101055.77
2022-10-26T13:29:01.555Z,101056.88
2022-10-26T13:32:33.058Z,101056.88
2022-10-26T13:36:06.058Z,101054.36
2022-10-26T13:39:38.393Z,101053.69
2022-10-26T13:43:08.840Z,101051.35
2022-10-26T13:46:41.633Z,101048.96
2022-10-26T13:50:15.765Z,101056.55
2022-10-26T13:53:51.629Z,101059.44
2022-10-26T13:57:24.630Z,101063.29
2022-10-26T14:01:17.390Z,101062.23
2022-10-26T14:04:47.381Z,101068.02
2022-10-26T14:08:21.385Z,101070.19
2022-10-26T14:11:50.172Z,101062.38
2022-10-26T14:15:20.936Z,101058.88
2022-10-26T14:18:48.687Z,101055.70
2022-10-26T14:22:23.703Z,101056.03
2022-10-26T14:25:58.882Z,101061.16
2022-10-26T14:29:29.840Z,101054.88
2022-10-26T14:33:02.975Z,101060.05
2022-10-26T14:36:36.550Z,101063.77
2022-10-26T14:40:05.224Z,101061.27
2022-10-26T14:43:32.691Z,101066.05
2022-10-26T14:46:59.795Z,101067.89
2022-10-26T14:50:32.343Z,101070.14
2022-10-26T14:54:04.300Z,101069.98
2022-10-26T14:57:40.074Z,101070.70
2022-10-26T15:01:36.305Z,101067.84
2022-10-26T15:05:18.516Z,101070.50
2022-10-26T15:08:56.980Z,101068.55
2022-10-26T15:12:32.010Z,101072.71
2022-10-26T15:16:11.507Z,101069.80
2022-10-26T15:19:41.593Z,101073.19
2022-10-26T15:23:16.895Z,101072.84
2022-10-26T15:26:46.800Z,101074.06
2022-10-26T15:30:23.384Z,101083.18
2022-10-26T15:34:14.708Z,101079.79
2022-10-26T15:37:41.769Z,101076.88
2022-10-26T15:41:14.983Z,101079.58
2022-10-26T15:44:42.984Z,101077.03
2022-10-26T15:48:25.849Z,101077.74
2022-10-26T15:51:52.772Z,101081.59
2022-10-26T15:55:22.198Z,101077.33
2022-10-26T15:58:50.628Z,101083.61
2022-10-26T16:02:19.258Z,101086.59
2022-10-26T16:05:47.610Z,101085.27
2022-10-26T16:09:18.139Z,101086.61
2022-10-26T16:12:44.998Z,101088.55
2022-10-26T16:16:15.009Z,101087.16
2022-10-26T16:19:42.876Z,101093.45
2022-10-26T16:23:14.614Z,101093.89
2022-10-26T16:26:42.938Z,101095.16
2022-10-26T16:30:13.096Z,101096.09
2022-10-26T16:33:47.029Z,101097.98
2022-10-26T16:37:16.297Z,101101.23
2022-10-26T16:40:45.412Z,101109.55
2022-10-26T16:44:14.909Z,101111.71
2022-10-26T16:47:43.093Z,101108.16
2022-10-26T16:51:12.089Z,101116.38
2022-10-26T16:54:39.145Z,101120.66
2022-10-26T16:58:05.986Z,101125.11
2022-10-26T17:01:33.950Z,101122.91
2022-10-26T17:05:04.249Z,101128.25
2022-10-26T17:08:36.776Z,101126.91
2022-10-26T17:12:04.243Z,101133.59
2022-10-26T17:15:31.672Z,101136.95
2022-10-26T17:18:59.627Z,101142.74
2022-10-26T17:22:27.687Z,101144.42
2022-10-26T17:25:54.717Z,101149.10
2022-10-26T17:29:24.494Z,101153.00
2022-10-26T17:32:52.232Z,101152.33
2022-10-26T17:36:26.009Z,101157.55
2022-10-26T17:39:54.189Z,101160.10
2022-10-26T17:43:22.622Z,101156.98
2022-10-26T17:46:52.446Z,101158.55
2022-10-26T17:50:19.867Z,101162.92
2022-10-26T17:53:50.206Z,101166.00
2022-10-26T17:57:18.324Z,101168.82
2022-10-26T18:00:49.344Z,101177.73
2022-10-26T18:04:17.270Z,101179.85
2022-10-26T18:07:44.895Z,101180.83
2022-10-26T18:11:16.481Z,101176.38
2022-10-26T18:14:45.669Z,101179.61
2022-10-26T18:18:13.357Z,101183.41
2022-10-26T18:21:40.501Z,101186.68
2022-10-26T18:25:14.887Z,101188.29
2022-10-26T18:28:43.616Z,101188.44
2022-10-26T18:32:14.167Z,101189.67
2022-10-26T18:35:41.429Z,101192.27
2022-10-26T18:39:08.829Z,101194.95
2022-10-26T18:42:39.586Z,101199.05
2022-10-26T18:46:11.039Z,101202.42
2022-10-26T18:49:42.047Z,101205.88
2022-10-26T18:53:13.040Z,101206.02
2022-10-26T18:56:41.843Z,101204.32
2022-10-26T19:00:11.003Z,101212.14
2022-10-26T19:03:39.555Z,101213.70
2022-10-26T19:07:06.907Z,101216.71
2022-10-26T19:14:03.379Z,101223.71
2022-10-26T19:17:32.250Z,101227.34
2022-10-26T19:21:06.452Z,101232.77
2022-10-26T19:24:33.761Z,101233.82
2022-10-26T19:28:01.679Z,101233.63
2022-10-26T19:31:32.567Z,101231.77
2022-10-26T19:34:59.340Z,101231.77
2022-10-26T19:38:27.128Z,101239.54
2022-10-26T19:41:57.653Z,101244.09
2022-10-26T19:45:24.789Z,101245.95
2022-10-26T19:48:57.461Z,101256.67
2022-10-26T19:52:25.083Z,101256.84
2022-10-26T19:55:57.714Z,101262.91
2022-10-26T19:59:27.481Z,101265.77
2022-10-26T20:02:56.507Z,101272.27
2022-10-26T20:06:26.836Z,101273.08
2022-10-26T20:09:57.302Z,101270.80
2022-10-26T20:13:27.335Z,101276.88
2022-10-26T20:16:57.683Z,101265.02
2022-10-26T20:20:26.375Z,101273.29
2022-10-26T20:23:56.341Z,101271.27
2022-10-26T20:27:26.398Z,101271.23
2022-10-26T20:30:56.991Z,101271.23
2022-10-26T20:34:24.631Z,101274.48
2022-10-26T20:37:56.803Z,101269.98
2022-10-26T20:41:26.001Z,101270.23
2022-10-26T20:45:07.221Z,101263.89
2022-10-26T20:48:35.744Z,101265.41
2022-10-26T20:52:20.849Z,101265.71
2022-10-26T20:55:57.117Z,101258.02
2022-10-26T20:59:31.671Z,101258.61
2022-10-26T21:03:06.587Z,101261.00
2022-10-26T21:06:43.809Z,101261.77
2022-10-26T21:10:14.861Z,101264.75
2022-10-26T21:13:45.057Z,101277.33
2022-10-26T21:17:17.460Z,101276.26
2022-10-26T21:20:44.811Z,101275.38
2022-10-26T21:24:12.765Z,101273.15
2022-10-26T21:27:42.188Z,101273.57
2022-10-26T21:31:14.358Z,101278.08
2022-10-26T21:34:41.225Z,101276.01
2022-10-26T21:38:15.674Z,101275.23
2022-10-26T21:45:30.804Z,101276.38
2022-10-26T21:48:58.141Z,101275.88
2022-10-26T21:52:24.915Z,101279.48
2022-10-26T21:56:00.289Z,101280.88
2022-10-26T21:59:27.118Z,101280.20
2022-10-26T22:02:55.413Z,101277.44
2022-10-26T22:06:23.166Z,101275.17
2022-10-26T22:10:00.673Z,101278.39
2022-10-26T22:13:37.760Z,101281.54
2022-10-26T22:17:04.637Z,101284.20
2022-10-26T22:20:31.625Z,101282.55
2022-10-26T22:23:58.612Z,101283.39
2022-10-26T22:27:30.546Z,101278.70
2022-10-26T22:30:57.497Z,101276.31
2022-10-26T22:34:25.708Z,101275.52
2022-10-26T22:37:52.722Z,101277.92
2022-10-26T22:41:20.484Z,101279.14
2022-10-26T22:44:47.391Z,101274.06
2022-10-26T22:48:13.936Z,101272.59
2022-10-26T22:51:40.681Z,101264.63
2022-10-26T22:55:09.994Z,101259.92
2022-10-26T22:58:39.213Z,101268.88
2022-10-26T23:02:06.461Z,101271.05
2022-10-26T23:05:44.829Z,101272.77
2022-10-26T23:09:11.922Z,101274.63
2022-10-26T23:12:38.913Z,101280.06
2022-10-26T23:16:13.594Z,101277.07
2022-10-26T23:19:43.209Z,101273.31
2022-10-26T23:23:09.867Z,101277.17
2022-10-26T23:26:36.881Z,101280.77
2022-10-26T23:30:03.775Z,101278.63
2022-10-26T23:33:30.884Z,101281.20
2022-10-26T23:36:58.282Z,101286.69
2022-10-26T23:40:25.186Z,101293.20
2022-10-26T23:43:51.893Z,101298.77
2022-10-26T23:47:19.098Z,101300.66
2022-10-26T23:50:47.319Z,101302.00
2022-10-26T23:54:13.989Z,101297.10
2022-10-26T23:57:42.060Z,101293.48
